createdAt,value
2023-02-07T01:58:42.382Z,96622.00
2023-02-07T01:59:42.420Z,96620.00
2023-02-07T02:00:42.444Z,96620.00
2023-02-07T02:01:42.470Z,96622.00
2023-02-07T02:02:42.493Z,96622.00
2023-02-07T02:03:42.477Z,96622.00
2023-02-07T02:04:42.463Z,96624.00
2023-02-07T02:05:42.517Z,96626.00
2023-02-07T02:06:42.494Z,96624.00
2023-02-07T02:07:42.518Z,96624.00
2023-02-07T02:08:42.511Z,96624.00
2023-02-07T02:09:42.552Z,96624.00
2023-02-07T02:10:42.554Z,96624.00
2023-02-07T02:11:42.581Z,96622.00
2023-02-07T02:12:42.558Z,96622.00
2023-02-07T02:13:42.637Z,96620.00
2023-02-07T02:14:42.642Z,96616.00
2023-02-07T02:15:42.716Z,96616.00
2023-02-07T02:16:42.659Z,96616.00
2023-02-07T02:17:42.699Z,96614.00
2023-02-07T02:18:42.654Z,96614.00
2023-02-07T02:19:42.659Z,96612.00
2023-02-07T02:20:42.690Z,96616.00
2023-02-07T02:21:42.698Z,96616.00
2023-02-07T02:22:42.756Z,96618.00
2023-02-07T02:23:42.754Z,96618.00
2023-02-07T02:24:42.726Z,96616.00
2023-02-07T02:25:42.758Z,96614.00
2023-02-07T02:26:42.769Z,96612.00
2023-02-07T02:27:42.783Z,96612.00
2023-02-07T02:28:42.808Z,96610.00
2023-02-07T02:29:42.867Z,96610.00
2023-02-07T02:30:42.828Z,96610.00
2023-02-07T02:31:42.918Z,96608.00
2023-02-07T02:32:42.889Z,96610.00
2023-02-07T02:33:42.888Z,96612.00
2023-02-07T02:34:42.879Z,96614.00
2023-02-07T02:35:42.902Z,96616.00
2023-02-07T02:36:42.902Z,96614.00
2023-02-07T02:37:42.889Z,96618.00
2023-02-07T02:38:42.953Z,96616.00
2023-02-07T02:39:42.954Z,96620.00
2023-02-07T02:40:42.964Z,96622.00
2023-02-07T02:41:42.969Z,96624.00
2023-02-07T02:42:42.989Z,96626.00
2023-02-07T02:43:43.026Z,96630.00
2023-02-07T02:44:43.067Z,96632.00
2023-02-07T02:45:43.001Z,96634.00
2023-02-07T02:46:43.072Z,96634.00
2023-02-07T02:47:43.070Z,96630.00
2023-02-07T02:48:43.069Z,96632.00
2023-02-07T02:49:43.105Z,96632.00
2023-02-07T02:50:43.106Z,96632.00
2023-02-07T02:51:43.132Z,96637.00
2023-02-07T02:52:50.670Z,96639.00
2023-02-07T02:53:44.152Z,96643.00
2023-02-07T02:54:43.134Z,96647.00
2023-02-07T02:55:43.147Z,96647.00
2023-02-07T02:56:43.108Z,96647.00
2023-02-07T02:57:43.093Z,96643.00
2023-02-07T02:58:43.064Z,96645.00
2023-02-07T02:59:43.064Z,96647.00
2023-02-07T03:00:43.087Z,96645.00
2023-02-07T03:01:43.121Z,96647.00
2023-02-07T03:02:43.063Z,96649.00
2023-02-07T03:03:43.022Z,96653.00
2023-02-07T03:04:43.064Z,96659.00
2023-02-07T03:05:43.025Z,96661.00
2023-02-07T03:06:43.022Z,96667.00
2023-02-07T03:07:43.023Z,96667.00
2023-02-07T03:08:43.008Z,96671.00
2023-02-07T03:09:43.042Z,96671.00
2023-02-07T03:10:43.041Z,96675.00
2023-02-07T03:11:42.991Z,96677.00
2023-02-07T03:12:43.050Z,96679.00
2023-02-07T03:13:43.001Z,96683.00
2023-02-07T03:14:43.024Z,96684.00
2023-02-07T03:15:42.973Z,96686.00
2023-02-07T03:16:42.942Z,96686.00
2023-02-07T03:17:42.986Z,96686.00
2023-02-07T03:18:42.993Z,96686.00
2023-02-07T03:19:42.965Z,96688.00
2023-02-07T03:20:42.958Z,96688.00
2023-02-07T03:21:42.951Z,96698.00
2023-02-07T03:22:42.922Z,96690.00
2023-02-07T03:23:42.921Z,96700.00
2023-02-07T03:24:42.934Z,96702.00
2023-02-07T03:25:42.908Z,96704.00
2023-02-07T03:26:42.879Z,96704.00
2023-02-07T03:27:42.864Z,96712.00
2023-02-07T03:28:42.865Z,96708.00
2023-02-07T03:29:42.899Z,96718.00
2023-02-07T03:30:42.932Z,96716.00
2023-02-07T03:31:42.928Z,96718.00
2023-02-07T03:32:42.907Z,96718.00
2023-02-07T03:33:42.997Z,96720.00
2023-02-07T03:34:43.028Z,96722.00
2023-02-07T03:35:43.134Z,96722.00
2023-02-07T03:36:43.184Z,96724.00
2023-02-07T03:37:43.230Z,96728.00
2023-02-07T03:38:43.290Z,96730.00
2023-02-07T03:39:43.336Z,96732.00
2023-02-07T03:40:43.446Z,96730.00
2023-02-07T03:41:43.464Z,96730.00
2023-02-07T03:42:43.496Z,96730.00
2023-02-07T03:43:43.528Z,96728.00
2023-02-07T03:44:43.604Z,96726.00
2023-02-07T03:45:43.690Z,96728.00
2023-02-07T03:46:43.807Z,96730.00
2023-02-07T03:47:43.764Z,96728.00
2023-02-07T03:48:43.830Z,96726.00
2023-02-07T03:49:43.853Z,96732.00
2023-02-07T03:50:43.920Z,96732.00
2023-02-07T03:51:43.978Z,96734.00
2023-02-07T03:52:43.946Z,96734.00
2023-02-07T03:53:44.005Z,96738.00
2023-02-07T03:54:44.082Z,96738.00
2023-02-07T03:55:44.092Z,96738.00
2023-02-07T03:56:44.184Z,96740.00
2023-02-07T03:57:44.257Z,96744.00
2023-02-07T03:58:44.226Z,96745.00
2023-02-07T03:59:44.259Z,96747.00
2023-02-07T04:00:44.362Z,96749.00
2023-02-07T04:01:44.311Z,96753.00
2023-02-07T04:02:44.328Z,96755.00
2023-02-07T04:03:44.383Z,96761.00
2023-02-07T04:04:44.436Z,96763.00
2023-02-07T04:05:44.452Z,96767.00
2023-02-07T04:06:44.470Z,96769.00
2023-02-07T04:07:44.487Z,96769.00
2023-02-07T04:08:44.527Z,96771.00
2023-02-07T04:09:44.522Z,96769.00
2023-02-07T04:10:44.567Z,96771.00
2023-02-07T04:11:44.592Z,96775.00
2023-02-07T04:12:44.597Z,96775.00
2023-02-07T04:13:44.631Z,96779.00
2023-02-07T04:14:44.631Z,96779.00
2023-02-07T04:15:44.663Z,96781.00
2023-02-07T04:16:44.656Z,96781.00
2023-02-07T04:17:44.674Z,96781.00
2023-02-07T04:18:44.679Z,96781.00
2023-02-07T04:19:44.740Z,96777.00
2023-02-07T04:20:44.717Z,96779.00
2023-02-07T04:21:44.760Z,96777.00
2023-02-07T04:22:44.744Z,96777.00
2023-02-07T04:23:44.729Z,96777.00
2023-02-07T04:24:44.763Z,96783.00
2023-02-07T04:25:44.770Z,96777.00
2023-02-07T04:26:44.767Z,96783.00
2023-02-07T04:27:44.757Z,96783.00
2023-02-07T04:28:44.755Z,96785.00
2023-02-07T04:29:44.764Z,96785.00
2023-02-07T04:30:44.833Z,96783.00
2023-02-07T04:31:44.803Z,96785.00
2023-02-07T04:32:44.806Z,96785.00
2023-02-07T04:33:44.825Z,96785.00
2023-02-07T04:34:44.798Z,96785.00
2023-02-07T04:35:44.790Z,96791.00
2023-02-07T04:36:44.800Z,96792.00
2023-02-07T04:37:44.816Z,96792.00
2023-02-07T04:38:44.820Z,96792.00
2023-02-07T04:39:44.856Z,96791.00
2023-02-07T04:40:44.850Z,96791.00
2023-02-07T04:41:44.841Z,96789.00
2023-02-07T04:42:44.843Z,96787.00
2023-02-07T04:43:44.859Z,96789.00
2023-02-07T04:44:44.905Z,96789.00
2023-02-07T04:45:44.910Z,96787.00
2023-02-07T04:46:44.912Z,96787.00
2023-02-07T04:47:44.916Z,96791.00
2023-02-07T04:48:44.898Z,96794.00
2023-02-07T04:49:44.925Z,96796.00
2023-02-07T04:50:44.936Z,96798.00
2023-02-07T04:51:44.959Z,96798.00
2023-02-07T04:52:44.956Z,96792.00
2023-02-07T04:53:44.977Z,96791.00
2023-02-07T04:54:44.998Z,96791.00
2023-02-07T04:55:45.012Z,96792.00
2023-02-07T04:56:45.029Z,96794.00
2023-02-07T04:57:45.041Z,96794.00
2023-02-07T04:58:45.057Z,96794.00
2023-02-07T04:59:45.075Z,96796.00
2023-02-07T05:00:45.058Z,96798.00
2023-02-07T05:01:45.105Z,96794.00
2023-02-07T05:02:45.106Z,96794.00
2023-02-07T05:03:45.169Z,96792.00
2023-02-07T05:04:45.173Z,96791.00
2023-02-07T05:05:45.171Z,96789.00
2023-02-07T05:06:45.205Z,96785.00
2023-02-07T05:07:45.206Z,96787.00
2023-02-07T05:08:45.264Z,96789.00
2023-02-07T05:09:45.320Z,96791.00
2023-02-07T05:10:45.277Z,96792.00
2023-02-07T05:11:45.325Z,96789.00
2023-02-07T05:12:45.334Z,96787.00
2023-02-07T05:13:45.400Z,96785.00
2023-02-07T05:14:45.400Z,96787.00
2023-02-07T05:15:45.435Z,96787.00
2023-02-07T05:16:45.604Z,96787.00
2023-02-07T05:17:45.467Z,96783.00
2023-02-07T05:18:45.538Z,96785.00
2023-02-07T05:19:45.571Z,96781.00
2023-02-07T05:20:45.609Z,96781.00
2023-02-07T05:21:45.618Z,96783.00
2023-02-07T05:22:45.669Z,96783.00
2023-02-07T05:23:45.693Z,96787.00
2023-02-07T05:24:45.723Z,96785.00
2023-02-07T05:25:45.767Z,96781.00
2023-02-07T05:26:45.789Z,96777.00
2023-02-07T05:27:45.852Z,96775.00
2023-02-07T05:28:45.863Z,96777.00
2023-02-07T05:29:45.927Z,96781.00
2023-02-07T05:30:46.033Z,96779.00
2023-02-07T05:31:46.096Z,96777.00
2023-02-07T05:32:45.968Z,96777.00
2023-02-07T05:33:46.001Z,96781.00
2023-02-07T05:34:46.025Z,96775.00
2023-02-07T05:35:46.122Z,96777.00
2023-02-07T05:36:46.126Z,96777.00
2023-02-07T05:37:46.133Z,96779.00
2023-02-07T05:38:46.194Z,96785.00
2023-02-07T05:39:46.202Z,96781.00
2023-02-07T05:40:46.243Z,96787.00
2023-02-07T05:41:46.260Z,96783.00
2023-02-07T05:42:46.292Z,96781.00
2023-02-07T05:43:46.325Z,96779.00
2023-02-07T05:44:46.342Z,96783.00
2023-02-07T05:45:46.396Z,96781.00
2023-02-07T05:46:46.388Z,96783.00
2023-02-07T05:47:46.389Z,96785.00
2023-02-07T05:48:46.445Z,96787.00
2023-02-07T05:49:46.479Z,96789.00
2023-02-07T05:50:46.488Z,96792.00
2023-02-07T05:51:46.519Z,96792.00
2023-02-07T05:52:46.575Z,96794.00
2023-02-07T05:53:46.606Z,96794.00
2023-02-07T05:54:46.665Z,96798.00
2023-02-07T05:55:46.700Z,96800.00
2023-02-07T05:56:46.716Z,96798.00
2023-02-07T05:57:46.716Z,96800.00
2023-02-07T05:58:46.787Z,96804.00
2023-02-07T05:59:46.837Z,96808.00
2023-02-07T06:00:53.816Z,96808.00
2023-02-07T06:01:46.831Z,96816.00
2023-02-07T06:02:46.853Z,96816.00
2023-02-07T06:03:46.842Z,96814.00
2023-02-07T06:04:46.843Z,96814.00
2023-02-07T06:05:46.794Z,96810.00
2023-02-07T06:06:46.800Z,96810.00
2023-02-07T06:07:46.761Z,96806.00
2023-02-07T06:08:46.789Z,96808.00
2023-02-07T06:09:46.820Z,96812.00
2023-02-07T06:10:46.790Z,96816.00
2023-02-07T06:11:46.765Z,96816.00
2023-02-07T06:12:46.742Z,96820.00
2023-02-07T06:13:46.736Z,96820.00
2023-02-07T06:14:46.744Z,96824.00
2023-02-07T06:15:46.749Z,96828.00
2023-02-07T06:16:46.748Z,96830.00
2023-02-07T06:17:46.754Z,96830.00
2023-02-07T06:18:46.721Z,96832.00
2023-02-07T06:19:46.714Z,96826.00
2023-02-07T06:20:46.722Z,96828.00
2023-02-07T06:21:47.150Z,96830.00
2023-02-07T06:22:46.660Z,96828.00
2023-02-07T06:23:46.675Z,96832.00
2023-02-07T06:24:46.691Z,96828.00
2023-02-07T06:25:46.663Z,96824.00
2023-02-07T06:26:46.703Z,96826.00
2023-02-07T06:27:46.688Z,96826.00
2023-02-07T06:28:46.670Z,96830.00
2023-02-07T06:29:46.618Z,96828.00
2023-02-07T06:30:46.735Z,96834.00
2023-02-07T06:31:46.704Z,96832.00
2023-02-07T06:32:46.642Z,96830.00
2023-02-07T06:33:46.694Z,96828.00
2023-02-07T06:34:46.726Z,96828.00
2023-02-07T06:35:47.313Z,96830.00
2023-02-07T06:36:46.832Z,96830.00
2023-02-07T06:38:46.955Z,96830.00
2023-02-07T06:39:46.984Z,96822.00
2023-02-07T06:40:47.238Z,96824.00
2023-02-07T06:41:47.074Z,96818.00
2023-02-07T06:42:47.033Z,96818.00
2023-02-07T06:43:47.758Z,96816.00
2023-02-07T06:44:47.139Z,96810.00
2023-02-07T06:46:47.179Z,96808.00
2023-02-07T06:47:47.201Z,96816.00
2023-02-07T06:48:47.159Z,96814.00
2023-02-07T06:49:47.160Z,96816.00
2023-02-07T06:50:47.176Z,96820.00
2023-02-07T06:51:47.114Z,96822.00
2023-02-07T06:52:47.123Z,96824.00
2023-02-07T06:53:47.125Z,96830.00
2023-02-07T06:54:47.152Z,96834.00
2023-02-07T06:56:47.115Z,96834.00
2023-02-07T06:57:47.134Z,96834.00
2023-02-07T06:58:47.096Z,96836.00
2023-02-07T06:59:47.075Z,96834.00
2023-02-07T07:00:47.289Z,96836.00
2023-02-07T07:01:49.400Z,96832.00
2023-02-07T07:02:47.184Z,96834.00
2023-02-07T07:03:47.157Z,96834.00
2023-02-07T07:05:47.344Z,96830.00
2023-02-07T07:06:47.233Z,96832.00
2023-02-07T07:07:47.303Z,96832.00
2023-02-07T07:08:47.283Z,96834.00
2023-02-07T07:09:47.294Z,96838.00
2023-02-07T07:10:47.371Z,96841.00
2023-02-07T07:11:47.371Z,96845.00
2023-02-07T07:12:47.372Z,96843.00
2023-02-07T07:13:47.404Z,96839.00
2023-02-07T07:14:47.436Z,96843.00
2023-02-07T07:15:47.525Z,96845.00
2023-02-07T07:16:47.494Z,96847.00
2023-02-07T07:17:47.565Z,96845.00
2023-02-07T07:18:47.563Z,96847.00
2023-02-07T07:19:47.565Z,96845.00
2023-02-07T07:20:47.648Z,96845.00
2023-02-07T07:21:47.585Z,96847.00
2023-02-07T07:22:47.652Z,96843.00
2023-02-07T07:23:47.665Z,96843.00
2023-02-07T07:24:47.780Z,96845.00
2023-02-07T07:25:47.719Z,96849.00
2023-02-07T07:26:49.992Z,96847.00
2023-02-07T07:27:47.740Z,96845.00
2023-02-07T07:28:47.749Z,96851.00
2023-02-07T07:29:47.741Z,96847.00
2023-02-07T07:31:47.756Z,96847.00
2023-02-07T07:32:47.701Z,96855.00
2023-02-07T07:33:47.719Z,96851.00
2023-02-07T07:37:47.692Z,96853.00
2023-02-07T07:38:48.015Z,96853.00
2023-02-07T07:39:47.720Z,96853.00
2023-02-07T07:40:47.766Z,96851.00
2023-02-07T07:41:47.693Z,96847.00
2023-02-07T07:42:47.789Z,96845.00
2023-02-07T07:43:47.731Z,96847.00
2023-02-07T07:44:47.793Z,96839.00
2023-02-07T07:45:47.799Z,96841.00
2023-02-07T07:46:47.841Z,96843.00
2023-02-07T07:47:47.810Z,96839.00
2023-02-07T07:48:47.817Z,96836.00
2023-02-07T07:49:47.943Z,96834.00
2023-02-07T07:50:48.344Z,96836.00
2023-02-07T07:51:47.840Z,96830.00
2023-02-07T07:52:47.913Z,96828.00
2023-02-07T07:53:47.856Z,96826.00
2023-02-07T07:54:47.853Z,96822.00
2023-02-07T07:55:47.914Z,96822.00
2023-02-07T07:56:47.969Z,96822.00
2023-02-07T07:57:48.037Z,96826.00
2023-02-07T07:58:48.111Z,96826.00
2023-02-07T07:59:48.141Z,96826.00
2023-02-07T08:00:48.269Z,96822.00
2023-02-07T08:01:48.254Z,96822.00
2023-02-07T08:02:48.336Z,96820.00
2023-02-07T08:03:48.385Z,96818.00
2023-02-07T08:04:48.452Z,96818.00
2023-02-07T08:05:48.481Z,96820.00
2023-02-07T08:06:48.557Z,96816.00
2023-02-07T08:08:48.666Z,96816.00
2023-02-07T08:09:48.741Z,96816.00
2023-02-07T08:10:48.763Z,96814.00
2023-02-07T08:11:48.833Z,96814.00
2023-02-07T08:12:48.863Z,96810.00
2023-02-07T08:13:48.907Z,96812.00
2023-02-07T08:14:48.985Z,96808.00
2023-02-07T08:15:49.039Z,96806.00
2023-02-07T08:16:49.108Z,96806.00
2023-02-07T08:17:49.132Z,96804.00
2023-02-07T08:18:49.194Z,96808.00
2023-02-07T08:19:49.226Z,96806.00
2023-02-07T08:20:49.264Z,96802.00
2023-02-07T08:21:49.311Z,96800.00
2023-02-07T08:22:49.335Z,96796.00
2023-02-07T08:23:49.355Z,96796.00
2023-02-07T08:24:49.388Z,96796.00
2023-02-07T08:25:49.462Z,96794.00
2023-02-07T08:26:49.870Z,96794.00
2023-02-07T08:27:49.517Z,96794.00
2023-02-07T08:28:49.530Z,96789.00
2023-02-07T08:29:49.583Z,96794.00
2023-02-07T08:30:49.621Z,96791.00
2023-02-07T08:31:49.836Z,96787.00
2023-02-07T08:32:49.657Z,96785.00
2023-02-07T08:33:49.711Z,96777.00
2023-02-07T08:34:49.733Z,96779.00
2023-02-07T08:35:49.823Z,96775.00
2023-02-07T08:36:50.271Z,96773.00
2023-02-07T08:37:49.909Z,96769.00
2023-02-07T08:38:49.945Z,96771.00
2023-02-07T08:39:49.912Z,96769.00
2023-02-07T08:40:49.981Z,96761.00
2023-02-07T08:41:50.289Z,96763.00
2023-02-07T08:42:49.931Z,96763.00
2023-02-07T08:43:50.033Z,96761.00
2023-02-07T08:44:50.002Z,96765.00
2023-02-07T08:45:50.117Z,96761.00
2023-02-07T08:46:50.265Z,96761.00
2023-02-07T08:47:49.957Z,96765.00
2023-02-07T08:48:50.020Z,96765.00
2023-02-07T08:49:50.018Z,96765.00
2023-02-07T08:50:49.978Z,96765.00
2023-02-07T08:51:50.255Z,96763.00
2023-02-07T08:52:50.066Z,96763.00
2023-02-07T08:53:50.041Z,96761.00
2023-02-07T08:54:50.059Z,96759.00
2023-02-07T08:55:50.072Z,96757.00
2023-02-07T08:56:50.061Z,96757.00
2023-02-07T08:57:50.072Z,96759.00
2023-02-07T08:58:50.109Z,96757.00
2023-02-07T08:59:50.123Z,96759.00
2023-02-07T09:00:50.171Z,96753.00
2023-02-07T09:01:50.293Z,96755.00
2023-02-07T09:02:50.166Z,96753.00
2023-02-07T09:03:50.176Z,96751.00
2023-02-07T09:04:50.181Z,96749.00
2023-02-07T09:05:50.191Z,96751.00
2023-02-07T09:06:50.205Z,96751.00
2023-02-07T09:07:50.212Z,96747.00
2023-02-07T09:08:50.247Z,96745.00
2023-02-07T09:09:50.278Z,96745.00
2023-02-07T09:10:50.290Z,96744.00
2023-02-07T09:11:50.226Z,96740.00
2023-02-07T09:12:50.312Z,96738.00
2023-02-07T09:13:50.310Z,96740.00
2023-02-07T09:14:50.280Z,96736.00
2023-02-07T09:16:50.404Z,96726.00
2023-02-07T09:17:50.341Z,96726.00
2023-02-07T09:18:50.432Z,96724.00
2023-02-07T09:19:50.387Z,96724.00
2023-02-07T09:20:50.468Z,96724.00
2023-02-07T09:21:50.448Z,96724.00
2023-02-07T09:22:50.464Z,96722.00
2023-02-07T09:23:50.455Z,96722.00
2023-02-07T09:24:50.492Z,96720.00
2023-02-07T09:25:50.524Z,96724.00
2023-02-07T09:26:50.549Z,96726.00
2023-02-07T09:27:50.575Z,96726.00
2023-02-07T09:28:50.600Z,96726.00
2023-02-07T09:29:52.362Z,96720.00
2023-02-07T09:30:51.195Z,96722.00
2023-02-07T09:31:50.915Z,96720.00
2023-02-07T09:32:50.817Z,96720.00
2023-02-07T09:33:50.870Z,96718.00
2023-02-07T09:34:50.941Z,96716.00
2023-02-07T09:35:50.941Z,96718.00
2023-02-07T09:36:50.968Z,96716.00
2023-02-07T09:37:51.054Z,96716.00
2023-02-07T09:38:50.999Z,96714.00
2023-02-07T09:39:51.004Z,96714.00
2023-02-07T09:40:50.997Z,96714.00
2023-02-07T09:41:51.077Z,96710.00
2023-02-07T09:42:51.148Z,96708.00
2023-02-07T09:43:51.277Z,96706.00
2023-02-07T09:44:51.308Z,96706.00
2023-02-07T09:45:51.169Z,96706.00
2023-02-07T09:46:51.423Z,96702.00
2023-02-07T09:47:51.157Z,96702.00
2023-02-07T09:48:51.198Z,96702.00
2023-02-07T09:49:51.200Z,96700.00
2023-02-07T09:50:51.251Z,96690.00
2023-02-07T09:51:51.237Z,96698.00
2023-02-07T09:52:51.271Z,96688.00
2023-02-07T09:53:51.248Z,96686.00
2023-02-07T09:54:51.307Z,96686.00
2023-02-07T09:55:51.330Z,96688.00
2023-02-07T09:56:51.399Z,96688.00
2023-02-07T09:57:51.401Z,96683.00
2023-02-07T09:58:51.432Z,96681.00
2023-02-07T09:59:51.515Z,96675.00
2023-02-07T10:00:51.509Z,96673.00
2023-02-07T10:01:51.513Z,96673.00
2023-02-07T10:02:51.862Z,96671.00
2023-02-07T10:03:51.621Z,96671.00
2023-02-07T10:04:51.677Z,96673.00
2023-02-07T10:05:51.694Z,96669.00
2023-02-07T10:06:51.704Z,96669.00
2023-02-07T10:07:51.865Z,96667.00
2023-02-07T10:08:51.759Z,96665.00
2023-02-07T10:09:51.790Z,96661.00
2023-02-07T10:10:51.829Z,96665.00
2023-02-07T10:11:51.889Z,96661.00
2023-02-07T10:12:51.919Z,96659.00
2023-02-07T10:13:51.908Z,96657.00
2023-02-07T10:14:51.948Z,96655.00
2023-02-07T10:15:52.117Z,96651.00
2023-02-07T10:16:52.010Z,96653.00
2023-02-07T10:17:52.041Z,96653.00
2023-02-07T10:18:52.057Z,96653.00
2023-02-07T10:19:52.098Z,96649.00
2023-02-07T10:21:52.175Z,96647.00
2023-02-07T10:22:52.178Z,96645.00
2023-02-07T10:23:52.194Z,96643.00
2023-02-07T10:24:52.241Z,96641.00
2023-02-07T10:25:52.291Z,96639.00
2023-02-07T10:26:52.336Z,96639.00
2023-02-07T10:27:52.312Z,96641.00
2023-02-07T10:28:52.306Z,96639.00
2023-02-07T10:29:52.319Z,96637.00
2023-02-07T10:30:52.532Z,96637.00
2023-02-07T10:31:52.433Z,96639.00
2023-02-07T10:32:52.444Z,96636.00
2023-02-07T10:33:52.451Z,96637.00
2023-02-07T10:34:52.580Z,96632.00
2023-02-07T10:35:52.500Z,96636.00
2023-02-07T10:36:52.503Z,96634.00
2023-02-07T10:37:52.515Z,96634.00
2023-02-07T10:39:03.328Z,96636.00
2023-02-07T10:39:53.506Z,96634.00
2023-02-07T10:40:52.554Z,96632.00
2023-02-07T10:41:52.521Z,96624.00
2023-02-07T10:42:52.517Z,96628.00
2023-02-07T10:43:52.476Z,96626.00
2023-02-07T10:44:52.534Z,96628.00
2023-02-07T10:46:00.382Z,96628.00
2023-02-07T10:46:53.543Z,96626.00
2023-02-07T10:47:52.908Z,96624.00
2023-02-07T10:48:52.558Z,96622.00
2023-02-07T10:49:52.462Z,96622.00
2023-02-07T10:50:52.467Z,96618.00
2023-02-07T10:51:52.468Z,96614.00
2023-02-07T10:52:52.494Z,96614.00
2023-02-07T10:53:55.364Z,96614.00
2023-02-07T10:54:52.437Z,96612.00
2023-02-07T10:55:52.404Z,96612.00
2023-02-07T10:57:59.041Z,96608.00
2023-02-07T10:58:53.447Z,96604.00
2023-02-07T11:01:52.412Z,96598.00
2023-02-07T11:26:52.447Z,96604.00
2023-02-07T11:27:52.470Z,96602.00
2023-02-07T11:28:52.467Z,96594.00
2023-02-07T11:29:52.574Z,96594.00
2023-02-07T11:30:52.662Z,96590.00
2023-02-07T11:31:52.613Z,96590.00
2023-02-07T11:32:52.860Z,96589.00
2023-02-07T11:33:52.659Z,96587.00
2023-02-07T11:34:52.697Z,96589.00
2023-02-07T11:35:52.732Z,96589.00
2023-02-07T11:36:52.794Z,96596.00
2023-02-07T11:37:53.395Z,96596.00
2023-02-07T11:38:52.831Z,96598.00
2023-02-07T11:39:52.911Z,96598.00
2023-02-07T11:40:52.850Z,96596.00
2023-02-07T11:41:52.814Z,96592.00
2023-02-07T11:42:52.881Z,96598.00
2023-02-07T11:43:52.856Z,96592.00
2023-02-07T11:44:52.938Z,96589.00
2023-02-07T11:45:53.057Z,96587.00
2023-02-07T11:46:53.078Z,96587.00
2023-02-07T11:47:53.407Z,96587.00
2023-02-07T11:48:53.095Z,96590.00
2023-02-07T11:49:53.182Z,96590.00
2023-02-07T11:50:53.180Z,96589.00
2023-02-07T11:51:53.215Z,96583.00
2023-02-07T11:52:54.869Z,96583.00
2023-02-07T11:53:53.321Z,96583.00
2023-02-07T11:54:53.334Z,96585.00
2023-02-07T11:55:53.313Z,96585.00
2023-02-07T11:56:53.370Z,96585.00
2023-02-07T11:57:53.376Z,96585.00
2023-02-07T11:58:53.941Z,96583.00
2023-02-07T11:59:53.421Z,96583.00
2023-02-07T12:00:53.469Z,96579.00
2023-02-07T12:01:53.510Z,96577.00
2023-02-07T12:02:53.470Z,96581.00
2023-02-07T12:03:53.478Z,96577.00
2023-02-07T12:04:53.465Z,96579.00
2023-02-07T12:05:53.513Z,96575.00
2023-02-07T12:06:53.507Z,96577.00
2023-02-07T12:07:53.503Z,96577.00
2023-02-07T12:08:53.921Z,96577.00
2023-02-07T12:09:53.457Z,96575.00
2023-02-07T12:10:53.470Z,96571.00
2023-02-07T12:11:53.455Z,96567.00
2023-02-07T12:12:53.492Z,96569.00
2023-02-07T12:13:53.471Z,96565.00
2023-02-07T12:14:53.552Z,96565.00
2023-02-07T12:15:53.596Z,96565.00
2023-02-07T12:16:53.566Z,96567.00
2023-02-07T12:17:53.564Z,96559.00
2023-02-07T12:18:53.631Z,96559.00
2023-02-07T12:19:53.703Z,96557.00
2023-02-07T12:20:53.757Z,96557.00
2023-02-07T12:21:53.805Z,96553.00
2023-02-07T12:23:07.770Z,96549.00
2023-02-07T12:23:54.800Z,96549.00
2023-02-07T12:24:53.776Z,96545.00
2023-02-07T12:25:53.754Z,96542.00
2023-02-07T12:26:53.738Z,96536.00
2023-02-07T12:27:53.766Z,96540.00
2023-02-07T12:29:04.021Z,96532.00
2023-02-07T12:29:54.734Z,96532.00
2023-02-07T12:30:53.788Z,96528.00
2023-02-07T12:31:53.834Z,96532.00
2023-02-07T12:32:53.811Z,96528.00
2023-02-07T12:33:54.019Z,96526.00
2023-02-07T12:34:53.962Z,96524.00
2023-02-07T12:35:57.503Z,96518.00
2023-02-07T12:36:53.706Z,96518.00
2023-02-07T12:37:53.705Z,96522.00
2023-02-07T12:38:53.934Z,96518.00
2023-02-07T12:39:53.657Z,96516.00
2023-02-07T12:40:53.688Z,96514.00
2023-02-07T12:41:53.645Z,96514.00
2023-02-07T12:42:53.657Z,96514.00
2023-02-07T12:43:53.755Z,96514.00
2023-02-07T12:44:53.612Z,96510.00
2023-02-07T12:45:53.654Z,96506.00
2023-02-07T12:46:53.607Z,96508.00
2023-02-07T12:47:53.598Z,96504.00
2023-02-07T12:48:53.628Z,96504.00
2023-02-07T12:49:53.608Z,96502.00
2023-02-07T12:50:53.574Z,96504.00
2023-02-07T12:51:53.570Z,96500.00
2023-02-07T12:52:53.615Z,96502.00
2023-02-07T12:53:53.640Z,96500.00
2023-02-07T12:54:53.681Z,96498.00
2023-02-07T12:55:53.674Z,96496.00
2023-02-07T12:56:53.724Z,96495.00
2023-02-07T12:57:53.705Z,96496.00
2023-02-07T12:58:53.754Z,96491.00
2023-02-07T12:59:53.736Z,96496.00
2023-02-07T13:00:53.801Z,96491.00
2023-02-07T13:01:53.884Z,96493.00
2023-02-07T13:02:53.791Z,96489.00
2023-02-07T13:03:53.827Z,96487.00
2023-02-07T13:04:53.917Z,96485.00
2023-02-07T13:05:53.977Z,96481.00
2023-02-07T13:06:53.986Z,96479.00
2023-02-07T13:07:54.061Z,96479.00
2023-02-07T13:08:54.136Z,96477.00
2023-02-07T13:09:54.217Z,96477.00
2023-02-07T13:10:54.182Z,96481.00
2023-02-07T13:11:54.258Z,96475.00
2023-02-07T13:12:54.333Z,96475.00
2023-02-07T13:13:54.373Z,96481.00
2023-02-07T13:14:54.416Z,96477.00
2023-02-07T13:15:54.504Z,96479.00
2023-02-07T13:16:54.574Z,96475.00
2023-02-07T13:17:54.612Z,96475.00
2023-02-07T13:18:54.684Z,96473.00
2023-02-07T13:19:54.737Z,96473.00
2023-02-07T13:20:54.794Z,96473.00
2023-02-07T13:21:54.834Z,96469.00
2023-02-07T13:22:54.908Z,96465.00
2023-02-07T13:23:55.245Z,96465.00
2023-02-07T13:24:54.990Z,96463.00
2023-02-07T13:25:54.994Z,96461.00
2023-02-07T13:26:55.029Z,96463.00
2023-02-07T13:27:55.089Z,96461.00
2023-02-07T13:28:55.118Z,96463.00
2023-02-07T13:29:55.153Z,96463.00
2023-02-07T13:30:55.222Z,96465.00
2023-02-07T13:31:55.339Z,96463.00
2023-02-07T13:32:55.250Z,96465.00
2023-02-07T13:33:55.280Z,96465.00
2023-02-07T13:34:55.288Z,96467.00
2023-02-07T13:35:55.342Z,96465.00
2023-02-07T13:36:57.254Z,96471.00
2023-02-07T13:37:55.350Z,96469.00
2023-02-07T13:38:55.354Z,96471.00
2023-02-07T13:39:55.369Z,96469.00
2023-02-07T13:40:55.372Z,96471.00
2023-02-07T13:41:55.341Z,96467.00
2023-02-07T13:42:55.308Z,96469.00
2023-02-07T13:44:08.015Z,96467.00
2023-02-07T13:44:56.333Z,96469.00
2023-02-07T13:45:55.321Z,96467.00
2023-02-07T13:46:55.329Z,96467.00
2023-02-07T13:47:55.291Z,96463.00
2023-02-07T13:48:55.349Z,96465.00
2023-02-07T13:49:55.294Z,96463.00
2023-02-07T13:50:55.306Z,96463.00
2023-02-07T13:51:55.286Z,96457.00
2023-02-07T13:52:55.358Z,96459.00
2023-02-07T13:53:55.433Z,96459.00
2023-02-07T13:54:55.489Z,96459.00
2023-02-07T13:55:55.577Z,96459.00
2023-02-07T13:56:55.689Z,96459.00
2023-02-07T13:57:55.693Z,96461.00
2023-02-07T13:58:55.689Z,96459.00
2023-02-07T13:59:55.776Z,96459.00
2023-02-07T14:00:55.846Z,96457.00
2023-02-07T14:01:55.875Z,96457.00
2023-02-07T14:02:55.907Z,96459.00
2023-02-07T14:03:55.963Z,96451.00
2023-02-07T14:04:56.031Z,96455.00
2023-02-07T14:05:56.090Z,96453.00
2023-02-07T14:06:56.208Z,96455.00
2023-02-07T14:07:56.186Z,96455.00
2023-02-07T14:08:56.276Z,96455.00
2023-02-07T14:09:56.303Z,96453.00
2023-02-07T14:10:56.371Z,96453.00
2023-02-07T14:11:56.408Z,96455.00
2023-02-07T14:12:56.465Z,96453.00
2023-02-07T14:13:56.535Z,96451.00
2023-02-07T14:15:03.203Z,96451.00
2023-02-07T14:15:57.606Z,96451.00
2023-02-07T14:16:56.551Z,96449.00
2023-02-07T14:17:56.545Z,96455.00
2023-02-07T14:18:56.553Z,96453.00
2023-02-07T14:19:56.516Z,96457.00
2023-02-07T14:20:56.528Z,96455.00